Time;durP1;ratioP1;P1;durP2;ratioP2;P2;SDS_P1;SDS_P2;PMS_P1;PMS_P2;Temp;Humidity;BMP_temperature;BMP_pressure;BME280_temperature;BME280_humidity;BME280_pressure;Samples;Min_cycle;Max_cycle;Signal;HPM_P1;HPM_P2
2022/10/22 00:00:51;;;;;;;18.88;16.83;;;;;;;8.15;69.89;95756.59;5119276;27;20603;-70
2022/10/22 00:03:18;;;;;;;18.20;16.33;;;;;;;8.17;69.59;95759.84;5118778;27;20199;-70
2022/10/22 00:05:45;;;;;;;17.48;15.77;;;;;;;8.18;69.58;95761.47;5118653;27;20548;-70
2022/10/22 00:08:13;;;;;;;17.83;16.20;;;;;;;8.20;69.92;95761.94;5136412;27;20183;-70
2022/10/22 00:10:40;;;;;;;18.55;16.65;;;;;;;8.16;69.98;95763.72;5136637;27;20195;-69
2022/10/22 00:13:11;;;;;;;16.80;15.25;;;;;;;8.15;70.09;95764.03;5136158;27;20182;-69
2022/10/22 00:15:38;;;;;;;18.70;16.77;;;;;;;8.14;70.06;95767.94;5118419;27;20198;-69
2022/10/22 00:18:05;;;;;;;18.63;16.73;;;;;;;8.15;69.97;95764.03;5136043;27;20179;-70
2022/10/22 00:20:32;;;;;;;17.45;15.77;;;;;;;8.10;70.20;95759.50;5136374;27;20187;-69
2022/10/22 00:22:59;;;;;;;18.10;16.40;;;;;;;8.09;70.29;95765.31;5118862;27;20198;-69
2022/10/22 00:25:25;;;;;;;17.98;16.13;;;;;;;8.06;69.94;95763.19;5118275;27;20214;-70
2022/10/22 00:27:52;;;;;;;16.40;14.77;;;;;;;7.95;69.86;95751.69;5118400;27;20210;-69
2022/10/22 00:30:21;;;;;;;16.48;14.75;;;;;;;7.91;70.03;95750.72;5117916;27;20190;-70
2022/10/22 00:32:47;;;;;;;18.20;16.35;;;;;;;7.84;70.06;95742.97;5118654;28;20199;-69
2022/10/22 00:35:14;;;;;;;16.42;14.93;;;;;;;7.82;70.16;95749.91;5136449;28;20183;-69
2022/10/22 00:37:41;;;;;;;17.30;15.70;;;;;;;7.86;70.15;95742.66;5118122;28;20194;-69
2022/10/22 00:40:10;;;;;;;16.75;15.05;;;;;;;7.88;70.63;95749.44;5118191;28;20194;-69
2022/10/22 00:42:36;;;;;;;17.05;15.35;;;;;;;7.90;70.17;95746.38;5136170;28;20251;-69
2022/10/22 00:45:15;;;;;;;16.35;14.65;;;;;;;7.88;70.07;95745.88;5136099;28;20213;-69
2022/10/22 00:47:47;;;;;;;17.60;15.70;;;;;;;7.87;70.22;95755.25;5136114;28;20220;-69
2022/10/22 00:50:18;;;;;;;17.17;15.48;;;;;;;7.87;70.29;95750.56;5135661;28;20569;-69
2022/10/22 00:52:45;;;;;;;17.10;15.40;;;;;;;7.85;70.29;95750.09;5118195;28;20198;-69
2022/10/22 00:55:12;;;;;;;16.65;14.95;;;;;;;7.85;70.37;95752.03;5135526;28;20250;-69
2022/10/22 00:57:39;;;;;;;16.75;15.10;;;;;;;7.87;70.09;95744.25;5117982;28;20206;-69
2022/10/22 01:00:07;;;;;;;17.10;15.45;;;;;;;7.89;70.28;95736.53;5117799;28;20201;-69
2022/10/22 01:02:34;;;;;;;16.70;15.00;;;;;;;7.92;70.61;95741.38;5135917;28;20187;-69
2022/10/22 01:05:03;;;;;;;17.42;15.35;;;;;;;7.91;70.07;95735.06;5117961;28;20206;-69
2022/10/22 01:07:31;;;;;;;17.17;15.38;;;;;;;7.87;70.28;95723.09;5135795;27;20198;-69
2022/10/22 01:10:05;;;;;;;16.67;15.18;;;;;;;7.83;70.10;95716.63;5131434;27;20258;-69
2022/10/22 01:12:44;;;;;;;16.80;15.20;;;;;;;7.70;69.84;95709.34;5121870;27;20203;-72
2022/10/22 01:15:18;;;;;;;16.23;14.63;;;;;;;7.66;69.88;95709.16;5121805;27;20187;-69
2022/10/22 01:17:53;;;;;;;16.25;14.60;;;;;;;7.64;69.93;95716.09;5121967;27;20206;-69
2022/10/22 01:20:47;;;;;;;16.92;15.23;;;;;;;7.65;70.46;95715.75;5139511;27;20179;-69
2022/10/22 01:23:24;;;;;;;17.40;15.32;;;;;;;7.67;70.55;95699.00;5121806;27;20202;-69
2022/10/22 01:25:58;;;;;;;16.45;14.85;;;;;;;7.68;70.37;95706.91;5139686;27;20203;-69
2022/10/22 01:28:40;;;;;;;16.35;14.75;;;;;;;7.69;70.20;95704.94;5121486;27;20206;-69
2022/10/22 01:31:08;;;;;;;17.05;15.45;;;;;;;7.70;70.24;95698.34;5121849;27;20191;-69
2022/10/22 01:33:35;;;;;;;16.00;14.50;;;;;;;7.73;70.31;95697.69;5121204;27;20194;-69
2022/10/22 01:36:04;;;;;;;16.13;14.73;;;;;;;7.74;70.55;95693.03;5139061;27;20513;-69
2022/10/22 01:38:31;;;;;;;16.92;15.30;;;;;;;7.74;70.51;95691.09;5120777;27;20199;-69
2022/10/22 01:40:58;;;;;;;16.65;15.10;;;;;;;7.70;70.86;95693.66;5121412;27;20195;-69
2022/10/22 01:43:25;;;;;;;17.77;15.98;;;;;;;7.62;70.13;95688.94;5121458;27;20214;-69
2022/10/22 01:45:58;;;;;;;16.13;14.63;;;;;;;7.59;70.40;95686.84;5138918;27;20211;-69
2022/10/22 01:48:36;;;;;;;15.98;14.38;;;;;;;7.56;70.23;95683.94;5139214;27;20206;-69
2022/10/22 01:51:11;;;;;;;15.82;14.27;;;;;;;7.50;70.22;95685.19;5121172;27;20600;-69
2022/10/22 01:53:41;;;;;;;17.13;15.35;;;;;;;7.50;70.36;95687.94;5138794;27;20187;-68
2022/10/22 01:56:28;;;;;;;16.17;14.68;;;;;;;7.46;70.32;95691.31;5111235;28;20195;-69
2022/10/22 01:59:00;;;;;;;16.38;14.82;;;;;;;7.46;70.60;95693.25;5100650;28;20207;-69
2022/10/22 02:01:34;;;;;;;18.73;16.80;;;;;;;7.48;71.08;95683.59;5118358;28;20180;-69
2022/10/22 02:04:06;;;;;;;18.38;16.67;;;;;;;7.53;71.11;95695.56;5118300;28;20196;-69
2022/10/22 02:06:34;;;;;;;17.27;15.68;;;;;;;7.55;70.99;95698.78;5100325;28;20252;-69
2022/10/22 02:09:01;;;;;;;16.73;15.13;;;;;;;7.45;70.86;95689.72;5117945;28;20294;-69
2022/10/22 02:11:28;;;;;;;16.70;15.10;;;;;;;7.40;70.50;95695.31;5100088;28;20192;-69
2022/10/22 02:13:58;;;;;;;15.98;14.52;;;;;;;7.37;70.70;95687.75;5117146;28;20195;-69
2022/10/22 02:16:29;;;;;;;16.55;14.90;;;;;;;7.36;70.88;95680.63;5100200;28;20206;-69
2022/10/22 02:18:57;;;;;;;17.25;15.55;;;;;;;7.34;70.49;95677.41;5099856;28;20199;-69
2022/10/22 02:21:24;;;;;;;18.02;16.17;;;;;;;7.34;70.71;95673.84;5100089;28;20211;-69
2022/10/22 02:23:50;;;;;;;17.10;15.23;;;;;;;7.32;70.60;95670.59;5116918;28;20200;-69
2022/10/22 02:26:22;;;;;;;17.15;15.48;;;;;;;7.32;70.89;95682.38;5117719;28;20211;-69
2022/10/22 02:28:54;;;;;;;17.05;15.35;;;;;;;7.32;70.70;95684.34;5100041;28;20199;-69
2022/10/22 02:31:24;;;;;;;16.70;15.13;;;;;;;7.28;70.76;95683.34;5099808;28;20192;-69
2022/10/22 02:33:55;;;;;;;16.58;15.02;;;;;;;7.26;70.83;95693.81;5099834;28;20219;-69
2022/10/22 02:36:22;;;;;;;17.42;15.25;;;;;;;7.28;70.88;95695.13;5116693;28;20191;-69
2022/10/22 02:38:51;;;;;;;17.65;15.95;;;;;;;7.29;71.16;95691.25;5099821;28;20199;-69
2022/10/22 02:41:18;;;;;;;17.67;15.95;;;;;;;7.30;71.02;95698.38;5099832;28;20211;-69
2022/10/22 02:43:50;;;;;;;16.85;15.27;;;;;;;7.31;71.37;95712.91;5117520;28;20215;-69
2022/10/22 02:46:17;;;;;;;17.05;15.45;;;;;;;7.36;71.61;95707.25;5099651;28;20220;-69
2022/10/22 02:48:44;;;;;;;17.67;15.98;;;;;;;7.38;71.35;95708.56;5117553;28;20194;-69
2022/10/22 02:51:12;;;;;;;17.70;16.08;;;;;;;7.40;71.52;95703.56;5117546;28;20188;-69
2022/10/22 02:53:39;;;;;;;16.85;15.25;;;;;;;7.39;71.31;95699.22;5116783;28;20196;-69
2022/10/22 02:56:06;;;;;;;17.73;15.82;;;;;;;7.33;71.30;95705.97;5116911;28;20249;-69
2022/10/22 02:58:33;;;;;;;17.45;15.75;;;;;;;7.25;71.14;95690.28;5099964;28;20218;-69
2022/10/22 03:01:00;;;;;;;18.67;16.73;;;;;;;7.16;70.93;95698.47;5117675;28;20184;-69
2022/10/22 03:03:26;;;;;;;19.05;17.05;;;;;;;7.12;71.21;95700.22;5117258;28;20184;-69
2022/10/22 03:05:53;;;;;;;18.48;16.55;;;;;;;7.11;71.60;95698.59;5116916;28;20207;-69
2022/10/22 03:08:21;;;;;;;18.40;16.38;;;;;;;7.10;71.25;95702.47;5099297;28;20214;-69
2022/10/22 03:10:48;;;;;;;18.42;16.63;;;;;;;7.11;71.68;95697.78;5099385;28;20535;-69
2022/10/22 03:13:15;;;;;;;18.05;16.15;;;;;;;7.10;71.79;95696.97;5117604;28;20202;-69
2022/10/22 03:15:41;;;;;;;19.02;17.05;;;;;;;7.12;71.77;95697.50;5099289;28;20211;-69
2022/10/22 03:18:08;;;;;;;18.48;16.67;;;;;;;7.08;71.73;95698.41;5117044;28;20192;-69
2022/10/22 03:20:35;;;;;;;18.05;16.27;;;;;;;7.04;71.51;95689.19;5117089;28;20498;-69
2022/10/22 03:23:02;;;;;;;17.30;15.18;;;;;;;7.04;71.96;95692.75;5099461;28;20203;-69
2022/10/22 03:25:33;;;;;;;17.48;15.70;;;;;;;7.05;72.02;95688.09;5117173;28;20222;-69
2022/10/22 03:28:02;;;;;;;17.58;15.65;;;;;;;7.07;72.08;95685.84;5098984;28;20196;-69
2022/10/22 03:30:28;;;;;;;17.23;15.55;;;;;;;7.14;71.97;95694.41;5115849;28;20192;-69
2022/10/22 03:32:55;;;;;;;16.48;14.88;;;;;;;7.16;71.88;95695.72;5098927;28;20214;-69
2022/10/22 03:35:22;;;;;;;16.60;15.07;;;;;;;7.14;72.26;95687.00;5116880;28;20184;-69
2022/10/22 03:37:49;;;;;;;18.27;16.38;;;;;;;7.10;72.16;95688.75;5116857;28;20195;-69
2022/10/22 03:40:16;;;;;;;19.73;17.58;;;;;;;7.06;72.10;95679.53;5098568;28;20192;-69
2022/10/22 03:42:44;;;;;;;19.25;17.23;;;;;;;7.04;72.08;95675.50;5116613;28;20184;-69
2022/10/22 03:45:11;;;;;;;18.55;16.83;;;;;;;7.03;71.97;95677.44;5116284;28;20211;-69
2022/10/22 03:47:38;;;;;;;18.90;16.20;;;;;;;6.97;71.98;95678.69;5098958;28;20530;-70
2022/10/22 03:50:07;;;;;;;18.88;16.90;;;;;;;6.98;72.23;95685.81;5116414;28;20188;-69
2022/10/22 03:52:36;;;;;;;18.35;16.65;;;;;;;6.95;71.79;95687.22;5116473;28;20192;-70
2022/10/22 03:55:04;;;;;;;19.95;18.05;;;;;;;6.92;72.28;95685.13;5116258;28;20675;-70
2022/10/22 03:57:30;;;;;;;19.25;17.48;;;;;;;6.92;72.34;95693.34;5116021;28;20618;-70
2022/10/22 03:59:58;;;;;;;17.13;15.43;;;;;;;6.95;72.65;95689.97;5116451;28;20183;-69
2022/10/22 04:02:25;;;;;;;18.52;16.83;;;;;;;7.00;72.96;95689.03;5116322;28;20191;-69
2022/10/22 04:04:52;;;;;;;19.60;17.67;;;;;;;6.97;72.73;95676.78;5115975;28;20187;-69
2022/10/22 04:07:19;;;;;;;19.58;17.67;;;;;;;7.00;72.94;95675.31;5098411;28;20212;-69
2022/10/22 04:09:45;;;;;;;19.67;17.80;;;;;;;7.05;73.02;95683.41;5098553;28;20195;-69
2022/10/22 04:12:12;;;;;;;19.38;17.52;;;;;;;7.11;72.97;95681.34;5116240;28;20245;-69
2022/10/22 04:15:00;;;;;;;18.75;16.85;;;;;;;7.13;73.02;95677.16;5114426;28;20255;-69
2022/10/22 04:17:47;;;;;;;19.45;17.45;;;;;;;7.11;72.69;95664.88;5113557;28;20208;-69
2022/10/22 04:20:34;;;;;;;19.65;17.55;;;;;;;7.08;72.43;95660.84;5113894;28;20184;-68
2022/10/22 04:23:18;;;;;;;20.40;18.33;;;;;;;7.06;72.73;95674.06;5115486;28;20182;-68
2022/10/22 04:25:45;;;;;;;21.02;18.85;;;;;;;7.08;72.60;95670.97;5097915;28;20208;-68
2022/10/22 04:28:12;;;;;;;19.08;17.33;;;;;;;7.10;72.65;95669.56;5097791;28;20191;-68
2022/10/22 04:30:41;;;;;;;21.17;19.02;;;;;;;7.12;72.84;95659.09;5115849;28;20183;-68
2022/10/22 04:33:07;;;;;;;19.92;17.92;;;;;;;7.17;72.77;95671.84;5098024;28;20215;-68
2022/10/22 04:35:38;;;;;;;19.92;17.98;;;;;;;7.19;72.43;95684.13;5097669;28;20608;-68
2022/10/22 04:38:05;;;;;;;19.08;17.17;;;;;;;7.21;72.46;95681.06;5097843;28;20206;-69
2022/10/22 04:40:32;;;;;;;19.25;17.35;;;;;;;7.20;72.72;95666.53;5115771;28;20184;-68
2022/10/22 04:42:59;;;;;;;19.33;17.33;;;;;;;7.22;72.98;95677.19;5100337;28;20195;-68
2022/10/22 04:45:26;;;;;;;19.42;17.42;;;;;;;7.26;73.03;95671.88;5119848;28;20204;-68
2022/10/22 04:47:54;;;;;;;21.08;17.65;;;;;;;7.31;72.88;95669.81;5101799;28;20187;-68
2022/10/22 04:50:20;;;;;;;18.83;16.80;;;;;;;7.37;72.73;95675.94;5120001;28;20195;-69
2022/10/22 04:52:47;;;;;;;20.08;17.90;;;;;;;7.40;72.94;95681.59;5119712;28;20191;-69
2022/10/22 04:55:14;;;;;;;26.25;20.80;;;;;;;7.43;72.83;95688.41;5119414;28;20231;-69
2022/10/22 04:57:41;;;;;;;21.08;17.45;;;;;;;7.41;73.09;95688.72;5119956;28;20188;-68
2022/10/22 05:00:09;;;;;;;18.25;16.15;;;;;;;7.44;73.02;95692.75;5119628;28;20188;-68
2022/10/22 05:02:35;;;;;;;19.63;17.17;;;;;;;7.48;73.28;95682.78;5119737;28;20179;-68
2022/10/22 05:05:04;;;;;;;22.25;17.35;;;;;;;7.50;73.27;95685.19;5101625;28;20198;-68
2022/10/22 05:07:31;;;;;;;21.45;17.92;;;;;;;7.50;73.23;95701.69;5119476;28;20199;-68
2022/10/22 05:09:57;;;;;;;22.25;16.50;;;;;;;7.49;72.90;95717.34;5119424;28;20249;-69
2022/10/22 05:12:24;;;;;;;18.42;16.55;;;;;;;7.50;73.12;95710.72;5101515;28;20192;-69
2022/10/22 05:14:51;;;;;;;20.23;16.25;;;;;;;7.52;73.07;95708.47;5101415;28;20526;-69
2022/10/22 05:17:18;;;;;;;17.85;15.85;;;;;;;7.52;73.26;95713.97;5119343;28;20188;-68
2022/10/22 05:19:45;;;;;;;18.80;15.45;;;;;;;7.54;72.75;95710.88;5101854;28;20203;-69
2022/10/22 05:22:13;;;;;;;18.10;15.95;;;;;;;7.55;73.29;95705.06;5119273;28;20207;-69
2022/10/22 05:24:39;;;;;;;18.80;15.93;;;;;;;7.59;73.07;95710.72;5101479;28;20211;-69
2022/10/22 05:27:06;;;;;;;20.05;16.60;;;;;;;7.59;73.41;95707.97;5100919;28;20227;-69
2022/10/22 05:29:33;;;;;;;18.48;15.82;;;;;;;7.66;73.19;95711.06;5119350;28;20184;-67
2022/10/22 05:32:00;;;;;;;21.05;16.67;;;;;;;7.63;73.19;95711.75;5101248;28;20520;-67
2022/10/22 05:34:27;;;;;;;17.73;15.77;;;;;;;7.64;73.20;95710.59;5100708;28;20207;-67
2022/10/22 05:36:54;;;;;;;19.92;16.38;;;;;;;7.66;73.65;95708.34;5118851;28;20191;-67
2022/10/22 05:39:22;;;;;;;22.77;17.33;;;;;;;7.66;73.44;95711.91;5100851;28;20204;-67
2022/10/22 05:41:48;;;;;;;17.92;15.85;;;;;;;7.63;73.49;95712.53;5118837;28;20200;-67
2022/10/22 05:44:15;;;;;;;19.77;16.85;;;;;;;7.61;74.01;95712.03;5118495;28;20517;-67
2022/10/22 05:46:42;;;;;;;20.83;16.70;;;;;;;7.58;73.86;95712.66;5118546;28;20215;-67
2022/10/22 05:49:13;;;;;;;18.88;16.00;;;;;;;7.58;73.68;95711.88;5100523;28;20199;-67
2022/10/22 05:51:39;;;;;;;17.95;16.05;;;;;;;7.58;73.83;95712.66;5100480;28;20200;-67
2022/10/22 05:54:09;;;;;;;21.25;15.80;;;;;;;7.57;73.54;95705.56;5121707;27;20222;-67
2022/10/22 05:56:38;;;;;;;17.83;15.90;;;;;;;7.58;73.77;95715.41;5138822;27;20238;-67
2022/10/22 05:59:05;;;;;;;19.63;16.27;;;;;;;7.60;73.78;95712.38;5138764;27;20517;-67
2022/10/22 06:01:34;;;;;;;21.05;16.52;;;;;;;7.60;73.90;95710.44;5120989;27;20202;-67
2022/10/22 06:04:05;;;;;;;20.20;18.10;;;;;;;7.61;74.27;95719.47;5138628;27;20215;-67
2022/10/22 06:06:34;;;;;;;19.00;16.90;;;;;;;7.63;73.75;95720.78;5139021;27;20226;-67
2022/10/22 06:09:03;;;;;;;21.55;16.55;;;;;;;7.64;74.01;95713.34;5138842;27;20184;-67
2022/10/22 06:11:30;;;;;;;21.38;16.35;;;;;;;7.67;74.12;95712.72;5120791;27;20195;-67
2022/10/22 06:13:58;;;;;;;20.55;17.60;;;;;;;7.73;74.16;95716.91;5138722;27;20187;-67
2022/10/22 06:16:25;;;;;;;20.80;18.20;;;;;;;7.79;74.25;95729.38;5138571;27;20175;-67
2022/10/22 06:18:51;;;;;;;21.88;16.88;;;;;;;7.85;74.36;95722.63;5120666;27;20206;-67
2022/10/22 06:21:18;;;;;;;20.27;18.02;;;;;;;7.91;74.36;95724.06;5120487;27;20607;-67
2022/10/22 06:23:45;;;;;;;20.75;18.45;;;;;;;8.02;74.18;95726.50;5120796;27;20199;-67
2022/10/22 06:26:12;;;;;;;21.65;19.17;;;;;;;8.10;73.98;95709.25;5138751;27;20210;-67
2022/10/22 06:28:39;;;;;;;23.10;19.77;;;;;;;8.17;73.53;95715.88;5138616;27;20187;-67
2022/10/22 06:31:07;;;;;;;20.63;18.50;;;;;;;8.24;73.56;95714.56;5120005;27;20550;-67
2022/10/22 06:33:40;;;;;;;23.75;20.08;;;;;;;8.31;73.68;95726.72;5138395;27;20187;-67
2022/10/22 06:36:09;;;;;;;21.58;19.35;;;;;;;8.40;73.61;95726.75;5138226;27;20187;-67
2022/10/22 06:38:36;;;;;;;24.30;20.85;;;;;;;8.51;73.38;95728.06;5138318;27;20202;-67
2022/10/22 06:41:04;;;;;;;22.52;20.08;;;;;;;8.59;73.45;95718.97;5138273;27;20171;-67
2022/10/22 06:43:31;;;;;;;23.52;20.50;;;;;;;8.73;73.25;95723.53;5138209;27;20187;-67
2022/10/22 06:46:01;;;;;;;32.97;29.67;;;;;;;8.82;73.37;95721.56;5138053;27;20203;-67
2022/10/22 06:48:29;;;;;;;33.70;30.10;;;;;;;8.92;73.69;95726.72;5137847;27;20183;-67
2022/10/22 06:50:56;;;;;;;24.85;22.15;;;;;;;8.99;73.50;95723.47;5138355;27;20180;-67
2022/10/22 06:53:22;;;;;;;24.98;20.50;;;;;;;9.06;72.97;95724.59;5138084;27;20183;-67
2022/10/22 06:55:49;;;;;;;20.63;18.35;;;;;;;9.13;72.46;95729.59;5119949;27;20250;-67
2022/10/22 06:58:16;;;;;;;22.08;19.45;;;;;;;9.19;72.36;95725.53;5099945;28;20195;-67
2022/10/22 07:00:43;;;;;;;21.58;19.27;;;;;;;9.28;72.44;95725.50;5099369;28;20618;-67
2022/10/22 07:03:12;;;;;;;21.85;18.67;;;;;;;9.36;72.07;95736.47;5117199;28;20191;-67
2022/10/22 07:05:40;;;;;;;20.15;17.98;;;;;;;9.45;71.62;95727.41;5097941;28;20227;-67
2022/10/22 07:08:07;;;;;;;21.67;18.63;;;;;;;9.53;71.01;95730.13;5116842;28;20196;-67
2022/10/22 07:10:34;;;;;;;22.13;19.75;;;;;;;9.59;71.17;95726.06;5116975;28;20191;-67
2022/10/22 07:13:02;;;;;;;23.17;19.05;;;;;;;9.68;71.40;95716.94;5116993;28;20603;-67
2022/10/22 07:15:29;;;;;;;21.73;19.38;;;;;;;9.74;71.17;95721.13;5117027;28;20199;-67
2022/10/22 07:17:55;;;;;;;21.98;19.67;;;;;;;9.84;71.32;95720.72;5117024;28;20583;-67
2022/10/22 07:20:22;;;;;;;25.25;20.65;;;;;;;9.92;71.24;95708.88;5116909;28;20195;-67
2022/10/22 07:22:50;;;;;;;25.45;20.90;;;;;;;10.06;70.85;95714.16;5099012;28;20539;-67
2022/10/22 07:25:17;;;;;;;22.55;20.15;;;;;;;10.15;70.21;95717.63;5098953;28;20203;-67
2022/10/22 07:27:44;;;;;;;23.05;19.88;;;;;;;10.25;69.96;95705.41;5099259;28;20219;-67
2022/10/22 07:30:11;;;;;;;24.20;20.52;;;;;;;10.38;69.79;95711.81;5116714;28;20188;-67
2022/10/22 07:32:38;;;;;;;23.48;19.77;;;;;;;10.46;69.04;95711.78;5116377;28;20184;-67
2022/10/22 07:35:06;;;;;;;23.65;20.83;;;;;;;10.53;68.89;95709.28;5116252;28;20180;-67
2022/10/22 07:37:32;;;;;;;24.20;21.60;;;;;;;10.60;68.83;95698.53;5116560;28;20192;-67
2022/10/22 07:40:01;;;;;;;26.48;22.15;;;;;;;10.71;68.93;95706.38;5099024;28;20195;-67
2022/10/22 07:42:27;;;;;;;29.30;24.52;;;;;;;10.79;68.46;95700.78;5098744;28;20199;-67
2022/10/22 07:44:54;;;;;;;35.10;29.02;;;;;;;10.87;67.62;95698.28;5116432;28;20196;-67
2022/10/22 07:47:21;;;;;;;38.20;31.85;;;;;;;10.94;68.21;95695.78;5098478;28;20215;-67
2022/10/22 07:49:48;;;;;;;39.25;30.45;;;;;;;10.98;67.09;95694.75;5098388;28;20189;-67
2022/10/22 07:52:15;;;;;;;38.25;30.27;;;;;;;11.09;68.02;95690.41;5116487;28;20192;-67
2022/10/22 07:54:41;;;;;;;34.15;29.40;;;;;;;11.18;66.78;95695.03;5124394;27;20692;-67
2022/10/22 07:57:09;;;;;;;27.95;25.02;;;;;;;11.29;66.89;95696.19;5136785;27;20186;-67
2022/10/22 07:59:36;;;;;;;31.20;25.00;;;;;;;11.36;65.73;95682.63;5118704;27;20202;-67
2022/10/22 08:02:03;;;;;;;26.08;23.13;;;;;;;11.48;66.39;95690.16;5118953;27;20198;-67
2022/10/22 08:04:30;;;;;;;24.45;21.75;;;;;;;11.60;66.30;95690.16;5118778;27;20202;-67
2022/10/22 08:06:57;;;;;;;23.55;21.05;;;;;;;11.69;65.75;95685.34;5136562;27;20218;-67
2022/10/22 08:09:23;;;;;;;26.40;22.15;;;;;;;11.75;64.53;95672.88;5118611;27;20195;-67
2022/10/22 08:11:51;;;;;;;25.63;20.70;;;;;;;11.84;64.15;95667.28;5137112;27;20191;-67
2022/10/22 08:14:19;;;;;;;23.75;21.13;;;;;;;11.91;63.82;95678.56;5136430;27;20611;-67
2022/10/22 08:16:48;;;;;;;23.40;20.83;;;;;;;12.01;63.69;95683.59;5136120;27;20183;-67
2022/10/22 08:19:17;;;;;;;19.98;17.85;;;;;;;12.09;62.99;95678.28;5136223;27;20290;-68
2022/10/22 08:21:44;;;;;;;19.42;17.10;;;;;;;12.14;62.69;95678.06;5118494;27;20203;-67
2022/10/22 08:24:11;;;;;;;23.65;18.88;;;;;;;12.25;62.51;95670.91;5137140;27;20198;-67
2022/10/22 08:26:38;;;;;;;22.20;18.27;;;;;;;12.36;62.71;95665.69;5136307;27;20210;-67
2022/10/22 08:29:05;;;;;;;15.40;13.80;;;;;;;12.47;62.04;95656.56;5136243;27;20186;-66
2022/10/22 08:31:34;;;;;;;21.52;18.77;;;;;;;12.62;62.11;95657.75;5136252;27;20184;-67
2022/10/22 08:34:01;;;;;;;18.73;16.83;;;;;;;12.79;62.11;95661.41;5136271;27;20180;-67
2022/10/22 08:36:27;;;;;;;21.45;17.40;;;;;;;12.95;61.72;95665.00;5136471;27;20183;-67
2022/10/22 08:38:54;;;;;;;18.63;16.45;;;;;;;13.14;61.50;95653.25;5118192;28;20202;-67
2022/10/22 08:41:22;;;;;;;22.88;18.20;;;;;;;13.29;60.92;95657.22;5117859;28;20211;-67
2022/10/22 08:44:16;;;;;;;21.63;17.58;;;;;;;13.40;60.63;95652.78;5135856;28;20202;-67
2022/10/22 08:47:16;;;;;;;21.02;18.20;;;;;;;13.55;59.77;95656.72;5117740;28;20211;-67
2022/10/22 08:49:43;;;;;;;22.50;17.63;;;;;;;13.66;59.87;95663.34;5135835;28;20187;-67
2022/10/22 08:52:13;;;;;;;19.73;17.42;;;;;;;13.79;59.67;95662.06;5136033;28;20183;-67
2022/10/22 08:54:47;;;;;;;16.95;15.25;;;;;;;13.88;59.14;95664.66;5135692;28;20234;-66
2022/10/22 08:57:24;;;;;;;19.63;17.30;;;;;;;13.97;58.67;95660.50;5136068;28;20184;-66
2022/10/22 08:59:55;;;;;;;19.58;17.38;;;;;;;14.07;58.73;95656.38;5136152;28;20198;-67
2022/10/22 09:02:38;;;;;;;23.65;20.15;;;;;;;14.20;58.27;95662.63;5135922;28;20187;-67
2022/10/22 09:05:17;;;;;;;24.33;20.58;;;;;;;14.31;57.47;95660.09;5135833;28;20190;-66
2022/10/22 09:07:48;;;;;;;24.65;20.70;;;;;;;14.38;57.22;95651.94;5135900;28;20222;-66
2022/10/22 09:10:16;;;;;;;23.25;20.85;;;;;;;14.45;56.96;95640.97;5135579;28;20508;-66
2022/10/22 09:12:43;;;;;;;24.50;20.75;;;;;;;14.57;57.05;95645.63;5117904;28;20195;-67
2022/10/22 09:15:13;;;;;;;25.02;19.83;;;;;;;14.66;56.59;95635.88;5135808;28;20187;-66
2022/10/22 09:17:55;;;;;;;23.45;20.40;;;;;;;14.74;56.19;95639.59;5118182;28;20206;-67
2022/10/22 09:20:27;;;;;;;22.77;18.95;;;;;;;14.78;56.11;95636.91;5117796;28;20210;-66
2022/10/22 09:23:00;;;;;;;24.50;20.88;;;;;;;14.89;56.01;95632.41;5136282;28;20247;-67
2022/10/22 09:25:29;;;;;;;26.95;20.25;;;;;;;14.96;55.88;95626.16;5135796;28;20187;-67
2022/10/22 09:27:58;;;;;;;24.10;19.90;;;;;;;15.01;54.61;95620.31;5117535;27;20682;-67
2022/10/22 09:30:27;;;;;;;21.40;18.73;;;;;;;15.11;55.02;95622.50;5120805;27;20199;-67
2022/10/22 09:33:00;;;;;;;24.75;20.85;;;;;;;15.20;54.22;95627.81;5139700;27;20252;-67
2022/10/22 09:35:27;;;;;;;22.83;19.67;;;;;;;15.27;54.83;95631.50;5139488;27;20179;-67
2022/10/22 09:37:56;;;;;;;23.88;20.38;;;;;;;15.36;54.48;95626.53;5121525;27;20190;-67
2022/10/22 09:40:25;;;;;;;24.88;21.58;;;;;;;15.46;54.58;95615.94;5139479;27;20201;-67
2022/10/22 09:42:52;;;;;;;21.77;19.05;;;;;;;15.51;53.96;95616.44;5121744;27;20191;-67
2022/10/22 09:45:20;;;;;;;23.08;20.02;;;;;;;15.61;53.62;95609.44;5121450;27;20195;-69
2022/10/22 09:47:47;;;;;;;22.27;19.30;;;;;;;15.71;53.27;95603.28;5139257;27;20195;-67
2022/10/22 09:50:22;;;;;;;24.92;19.10;;;;;;;15.83;53.04;95591.16;5121539;27;20199;-67
2022/10/22 09:52:58;;;;;;;21.42;18.67;;;;;;;15.95;53.29;95599.28;5139173;27;20179;-67
2022/10/22 09:55:25;;;;;;;23.95;19.38;;;;;;;16.02;51.86;95598.59;5117314;28;20235;-67
2022/10/22 09:57:53;;;;;;;20.65;18.15;;;;;;;16.19;51.92;95600.03;5104023;27;20214;-67
2022/10/22 10:00:23;;;;;;;21.45;19.10;;;;;;;16.26;51.75;95600.91;5121539;27;20263;-67
2022/10/22 10:02:55;;;;;;;21.40;19.08;;;;;;;16.33;51.59;95591.88;5121213;27;20282;-67
2022/10/22 10:05:29;;;;;;;22.60;20.02;;;;;;;16.44;52.05;95580.88;5121088;27;20191;-67
2022/10/22 10:07:56;;;;;;;21.48;19.17;;;;;;;16.37;51.21;95574.03;5120939;27;20213;-67
2022/10/22 10:10:32;;;;;;;24.45;19.90;;;;;;;16.37;51.71;95579.59;5121173;27;20203;-67
2022/10/22 10:13:03;;;;;;;23.92;18.08;;;;;;;16.42;51.24;95581.25;5120853;27;20198;-67
2022/10/22 10:15:35;;;;;;;21.30;17.92;;;;;;;16.48;51.08;95579.72;5120694;27;20199;-67
2022/10/22 10:18:09;;;;;;;24.63;19.40;;;;;;;16.65;50.46;95578.34;5120879;27;20221;-67
2022/10/22 10:20:41;;;;;;;26.02;21.05;;;;;;;16.71;49.67;95573.25;5138585;27;20179;-67
2022/10/22 10:23:13;;;;;;;22.48;19.33;;;;;;;16.77;50.72;95564.19;5120376;27;20207;-67
2022/10/22 10:25:49;;;;;;;22.50;20.08;;;;;;;16.91;49.72;95559.97;5120220;27;20631;-67
2022/10/22 10:28:25;;;;;;;22.75;19.50;;;;;;;17.01;49.68;95562.06;5138696;27;20218;-67
2022/10/22 10:30:55;;;;;;;23.88;18.98;;;;;;;16.98;49.06;95560.03;5138674;27;20186;-67
2022/10/22 10:33:31;;;;;;;21.90;18.75;;;;;;;16.96;49.11;95563.22;5120594;27;20203;-67
2022/10/22 10:36:04;;;;;;;24.15;19.20;;;;;;;16.95;48.90;95556.03;5138910;27;20264;-67
2022/10/22 10:38:51;;;;;;;23.15;18.73;;;;;;;16.97;48.96;95552.88;5138389;27;20198;-67
2022/10/22 10:41:26;;;;;;;26.00;20.65;;;;;;;17.05;49.60;95532.25;5119970;27;20226;-67
2022/10/22 10:44:29;;;;;;;23.40;19.73;;;;;;;17.12;49.31;95528.72;5138415;27;20178;-67
2022/10/22 10:47:03;;;;;;;24.10;19.88;;;;;;;17.21;48.74;95534.78;5119416;27;20206;-67
2022/10/22 10:49:31;;;;;;;22.42;20.02;;;;;;;17.26;48.28;95526.88;5120115;27;20202;-67
2022/10/22 10:52:07;;;;;;;25.33;21.05;;;;;;;17.12;49.26;95521.16;5120148;27;20191;-67
2022/10/22 10:54:45;;;;;;;28.63;20.27;;;;;;;17.13;48.98;95508.81;5120031;27;20227;-72
2022/10/22 10:57:19;;;;;;;23.13;20.15;;;;;;;17.16;48.78;95507.25;5137905;27;20183;-67
2022/10/22 10:59:57;;;;;;;22.65;19.17;;;;;;;17.19;48.97;95501.72;5120245;27;20194;-67
2022/10/22 11:02:58;;;;;;;22.23;19.13;;;;;;;17.19;49.33;95493.34;5119617;27;20190;-67
2022/10/22 11:05:32;;;;;;;21.05;18.20;;;;;;;17.25;49.32;95491.03;5137734;27;20174;-67
2022/10/22 11:08:04;;;;;;;22.95;19.23;;;;;;;17.25;49.65;95479.88;5119837;27;20211;-67
2022/10/22 11:10:35;;;;;;;23.13;18.73;;;;;;;17.26;49.16;95482.28;5119754;27;20203;-67
2022/10/22 11:13:08;;;;;;;22.95;17.80;;;;;;;17.29;49.18;95475.13;5119542;27;20198;-67
2022/10/22 11:15:38;;;;;;;23.63;18.25;;;;;;;17.24;48.67;95467.91;5119548;27;20505;-67
2022/10/22 11:18:13;;;;;;;21.45;18.45;;;;;;;17.22;48.41;95456.34;5119524;27;20191;-67
2022/10/22 11:20:46;;;;;;;25.10;18.60;;;;;;;17.23;48.91;95457.16;5137348;27;20182;-68
2022/10/22 11:23:17;;;;;;;20.33;16.90;;;;;;;17.25;48.62;95446.44;5118962;27;20548;-67
2022/10/22 11:25:45;;;;;;;19.00;16.75;;;;;;;17.27;49.11;95441.25;5137617;27;20222;-67
2022/10/22 11:28:15;;;;;;;18.35;16.00;;;;;;;17.30;49.27;95451.63;5137253;27;20199;-67
2022/10/22 11:30:44;;;;;;;20.38;17.55;;;;;;;17.34;48.92;95444.09;5137349;27;20194;-67
2022/10/22 11:33:13;;;;;;;19.48;16.58;;;;;;;17.34;49.29;95446.88;5137191;27;20190;-67